Time;durP1;ratioP1;P1;durP2;ratioP2;P2;SDS_P1;SDS_P2;PMS_P1;PMS_P2;Temp;Humidity;BMP_temperature;BMP_pressure;BME280_temperature;BME280_humidity;BME280_pressure;Samples;Min_cycle;Max_cycle;Signal;HPM_P1;HPM_P2
2023/08/15 00:00:09;;;;;;;;;;;24.30;75.60;;;;;;4159200;28;19936;-46
2023/08/15 00:02:53;;;;;;;;;;;24.30;75.60;;;;;;4165871;28;20075;-46
2023/08/15 00:05:36;;;;;;;;;;;24.30;75.70;;;;;;4154833;28;20280;-45
2023/08/15 00:08:17;;;;;;;;;;;24.30;75.70;;;;;;4154145;28;19932;-45
2023/08/15 00:10:58;;;;;;;;;;;24.30;75.70;;;;;;4155086;28;19936;-49
2023/08/15 00:13:39;;;;;;;;;;;24.30;75.70;;;;;;4155132;28;19931;-46
2023/08/15 00:16:19;;;;;;;;;;;24.30;75.80;;;;;;4155026;28;19932;-48
2023/08/15 00:19:01;;;;;;;;;;;24.30;75.80;;;;;;4171191;28;20470;-45
2023/08/15 00:21:43;;;;;;;;;;;24.30;75.90;;;;;;4171252;28;19943;-45
2023/08/15 00:24:23;;;;;;;;;;;24.30;75.90;;;;;;4170401;28;20071;-43
2023/08/15 00:27:04;;;;;;;;;;;24.20;75.80;;;;;;4141680;28;20496;-46
2023/08/15 00:29:45;;;;;;;;;;;24.20;75.90;;;;;;4154803;28;20040;-46
2023/08/15 00:32:26;;;;;;;;;;;24.20;75.90;;;;;;4153963;28;19932;-46
2023/08/15 00:35:07;;;;;;;;;;;24.20;75.90;;;;;;4154910;28;19936;-47
2023/08/15 00:37:49;;;;;;;;;;;24.20;75.90;;;;;;4154132;28;19936;-44
2023/08/15 00:40:31;;;;;;;;;;;24.20;76.00;;;;;;4138422;28;19948;-46
2023/08/15 00:43:11;;;;;;;;;;;24.20;76.00;;;;;;4153721;28;19936;-45
2023/08/15 00:45:52;;;;;;;;;;;24.20;76.00;;;;;;4153763;28;19978;-45
2023/08/15 00:48:33;;;;;;;;;;;24.10;76.10;;;;;;4154167;28;19935;-44
2023/08/15 00:51:14;;;;;;;;;;;24.10;76.10;;;;;;4142455;28;20391;-50
2023/08/15 00:53:56;;;;;;;;;;;24.10;76.10;;;;;;4154238;28;19932;-46
2023/08/15 00:56:37;;;;;;;;;;;24.10;76.10;;;;;;4153248;28;20334;-45
2023/08/15 00:59:18;;;;;;;;;;;24.10;76.10;;;;;;4141098;28;20403;-44
2023/08/15 01:02:00;;;;;;;;;;;24.10;76.10;;;;;;4154363;28;20379;-45
2023/08/15 01:04:41;;;;;;;;;;;24.10;77.00;;;;;;4154568;28;19932;-49
2023/08/15 01:07:22;;;;;;;;;;;24.10;76.10;;;;;;4154338;28;19936;-45
2023/08/15 01:10:05;;;;;;;;;;;24.10;76.10;;;;;;4126330;28;19949;-46
2023/08/15 01:12:48;;;;;;;;;;;24.10;76.10;;;;;;4137672;28;19933;-49
2023/08/15 01:15:31;;;;;;;;;;;24.00;76.00;;;;;;4131534;28;20020;-45
2023/08/15 01:18:13;;;;;;;;;;;24.00;76.20;;;;;;4138728;28;19948;-47
2023/08/15 01:20:55;;;;;;;;;;;24.00;76.20;;;;;;4154330;28;19936;-46
2023/08/15 01:23:42;;;;;;;;;;;24.00;76.20;;;;;;4141942;28;19936;-44
2023/08/15 01:26:23;;;;;;;;;;;24.00;77.20;;;;;;4142310;28;20360;-46
2023/08/15 01:29:04;;;;;;;;;;;23.90;76.30;;;;;;4151614;28;20280;-47
2023/08/15 01:31:49;;;;;;;;;;;23.90;76.30;;;;;;4144583;28;20300;-44
2023/08/15 01:34:37;;;;;;;;;;;23.90;76.30;;;;;;4154006;28;20048;-45
2023/08/15 01:37:20;;;;;;;;;;;23.90;76.30;;;;;;4137734;28;20372;-45
2023/08/15 01:40:03;;;;;;;;;;;23.90;76.30;;;;;;4134862;28;20060;-44
2023/08/15 01:42:45;;;;;;;;;;;23.90;76.30;;;;;;4157358;28;19936;-44
2023/08/15 01:45:28;;;;;;;;;;;23.90;76.40;;;;;;4155969;28;19951;-44
2023/08/15 01:48:08;;;;;;;;;;;23.90;76.40;;;;;;4143250;28;19975;-44
2023/08/15 01:50:49;;;;;;;;;;;23.90;76.40;;;;;;4140607;28;19937;-45
2023/08/15 01:53:30;;;;;;;;;;;23.90;76.40;;;;;;4157730;28;20393;-44
2023/08/15 01:56:14;;;;;;;;;;;23.80;76.40;;;;;;4139468;28;19936;-45
2023/08/15 01:58:55;;;;;;;;;;;23.80;76.40;;;;;;4139966;28;19933;-46
2023/08/15 02:01:36;;;;;;;;;;;23.80;76.40;;;;;;4136493;28;19952;-44
2023/08/15 02:04:17;;;;;;;;;;;23.80;76.50;;;;;;4141203;28;19991;-45
2023/08/15 02:06:58;;;;;;;;;;;23.80;76.50;;;;;;4140226;28;19955;-46
2023/08/15 02:09:39;;;;;;;;;;;23.80;76.50;;;;;;4150539;28;19936;-44
2023/08/15 02:12:21;;;;;;;;;;;23.80;76.50;;;;;;4142942;28;19932;-46
2023/08/15 02:15:04;;;;;;;;;;;23.80;76.50;;;;;;4173388;28;19932;-45
2023/08/15 02:17:45;;;;;;;;;;;23.70;76.50;;;;;;4172981;28;19932;-44
2023/08/15 02:20:26;;;;;;;;;;;23.70;76.50;;;;;;4159090;28;19951;-45
2023/08/15 02:23:07;;;;;;;;;;;23.70;76.50;;;;;;4156211;28;20268;-47
2023/08/15 02:25:47;;;;;;;;;;;23.70;76.50;;;;;;4156512;28;19936;-46
2023/08/15 02:28:31;;;;;;;;;;;23.70;76.50;;;;;;4156663;28;19932;-47
2023/08/15 02:31:11;;;;;;;;;;;23.70;77.40;;;;;;4154366;28;19932;-45
2023/08/15 02:33:52;;;;;;;;;;;23.70;76.60;;;;;;4130769;28;20292;-46
2023/08/15 02:36:33;;;;;;;;;;;23.70;76.60;;;;;;4128221;28;20023;-39
2023/08/15 02:39:15;;;;;;;;;;;23.70;76.60;;;;;;4140422;28;19975;-40
2023/08/15 02:41:56;;;;;;;;;;;23.70;76.60;;;;;;4144248;28;19936;-39
2023/08/15 02:44:38;;;;;;;;;;;23.70;76.60;;;;;;4138184;28;20355;-40
2023/08/15 02:47:19;;;;;;;;;;;23.70;76.70;;;;;;4149619;28;19933;-40
2023/08/15 02:50:00;;;;;;;;;;;23.70;76.60;;;;;;4139012;28;19936;-39
2023/08/15 02:52:42;;;;;;;;;;;23.60;76.60;;;;;;4152070;28;19932;-39
2023/08/15 02:55:23;;;;;;;;;;;23.60;76.60;;;;;;4159259;28;19940;-40
2023/08/15 02:58:06;;;;;;;;;;;23.60;76.70;;;;;;4160123;28;20425;-40
2023/08/15 03:00:48;;;;;;;;;;;23.60;76.70;;;;;;4162633;28;19936;-40
2023/08/15 03:03:29;;;;;;;;;;;23.60;76.70;;;;;;4156081;28;19936;-40
2023/08/15 03:06:10;;;;;;;;;;;23.60;76.70;;;;;;4143374;28;20395;-40
2023/08/15 03:08:50;;;;;;;;;;;23.60;76.70;;;;;;4155622;28;20422;-40
2023/08/15 03:11:31;;;;;;;;;;;23.60;77.60;;;;;;4142422;28;19933;-40
2023/08/15 03:14:12;;;;;;;;;;;23.60;76.70;;;;;;4166352;28;20060;-40
2023/08/15 03:16:54;;;;;;;;;;;23.60;76.80;;;;;;4155442;28;19931;-40
2023/08/15 03:19:37;;;;;;;;;;;23.60;76.80;;;;;;4159717;28;19998;-40
2023/08/15 03:22:18;;;;;;;;;;;23.60;76.80;;;;;;4172645;28;20329;-39
2023/08/15 03:24:59;;;;;;;;;;;23.50;76.80;;;;;;4172433;28;19952;-40
2023/08/15 03:27:40;;;;;;;;;;;23.50;76.80;;;;;;4143369;28;19936;-39
2023/08/15 03:30:21;;;;;;;;;;;23.50;76.90;;;;;;4142093;28;19932;-40
2023/08/15 03:33:04;;;;;;;;;;;23.50;76.90;;;;;;4126698;28;20297;-40
2023/08/15 03:35:46;;;;;;;;;;;23.50;77.00;;;;;;4126693;28;20059;-40
2023/08/15 03:38:27;;;;;;;;;;;23.50;77.00;;;;;;4138503;28;19933;-40
2023/08/15 03:41:08;;;;;;;;;;;23.50;77.00;;;;;;4138849;28;20399;-40
2023/08/15 03:43:49;;;;;;;;;;;23.50;78.00;;;;;;4139697;28;20383;-39
2023/08/15 03:46:30;;;;;;;;;;;23.50;77.10;;;;;;4171273;28;19952;-40
2023/08/15 03:49:12;;;;;;;;;;;23.50;77.10;;;;;;4172494;28;19946;-40
2023/08/15 03:51:53;;;;;;;;;;;23.50;77.20;;;;;;4147530;28;19940;-39
2023/08/15 03:54:34;;;;;;;;;;;23.50;77.20;;;;;;4159207;28;20272;-39
2023/08/15 03:57:15;;;;;;;;;;;23.50;77.30;;;;;;4158591;28;19936;-40
2023/08/15 04:00:06;;;;;;;;;;;23.50;78.20;;;;;;4164598;28;19956;-39
2023/08/15 04:02:54;;;;;;;;;;;23.50;77.40;;;;;;4155249;28;20382;-39
2023/08/15 04:05:37;;;;;;;;;;;23.50;77.50;;;;;;4141892;28;20300;-39
2023/08/15 04:08:18;;;;;;;;;;;23.50;78.40;;;;;;4152543;28;19983;-40
2023/08/15 04:11:00;;;;;;;;;;;23.50;77.50;;;;;;4142788;28;19932;-40
2023/08/15 04:13:41;;;;;;;;;;;23.40;77.50;;;;;;4138895;28;19936;-39
2023/08/15 04:16:21;;;;;;;;;;;23.40;78.40;;;;;;4142983;28;20394;-40
2023/08/15 04:19:02;;;;;;;;;;;23.50;77.70;;;;;;4155173;28;19936;-40
2023/08/15 04:21:45;;;;;;;;;;;23.50;77.70;;;;;;4159343;28;19932;-40
2023/08/15 04:24:26;;;;;;;;;;;23.40;78.50;;;;;;4161102;28;20063;-40
2023/08/15 04:27:07;;;;;;;;;;;23.40;77.70;;;;;;4153596;28;19932;-44
2023/08/15 04:29:48;;;;;;;;;;;23.40;77.80;;;;;;4126942;28;20397;-41
2023/08/15 04:32:29;;;;;;;;;;;23.40;78.70;;;;;;4138482;28;20022;-41
2023/08/15 04:35:10;;;;;;;;;;;23.40;77.90;;;;;;4154412;28;20285;-47
2023/08/15 04:37:52;;;;;;;;;;;23.40;78.00;;;;;;4137702;28;19932;-46
2023/08/15 04:40:35;;;;;;;;;;;23.40;78.00;;;;;;4153007;28;19936;-42
2023/08/15 04:43:16;;;;;;;;;;;23.40;78.10;;;;;;4133283;28;19936;-40
2023/08/15 04:45:56;;;;;;;;;;;23.40;78.20;;;;;;4136072;28;20273;-39
2023/08/15 04:48:37;;;;;;;;;;;23.40;79.10;;;;;;4130987;28;20006;-40
2023/08/15 04:51:21;;;;;;;;;;;23.40;78.30;;;;;;4123974;28;19932;-40
2023/08/15 04:54:04;;;;;;;;;;;23.40;78.60;;;;;;4137500;28;20447;-40
2023/08/15 04:56:45;;;;;;;;;;;23.50;79.20;;;;;;4150859;28;20304;-40
2023/08/15 04:59:27;;;;;;;;;;;23.50;79.50;;;;;;4126680;28;19936;-40
2023/08/15 05:02:09;;;;;;;;;;;23.50;79.50;;;;;;4141521;28;20418;-41
2023/08/15 05:04:50;;;;;;;;;;;23.50;79.30;;;;;;4142130;28;20790;-43
2023/08/15 05:07:31;;;;;;;;;;;23.50;79.20;;;;;;4154537;28;19932;-41
2023/08/15 05:10:13;;;;;;;;;;;23.50;79.20;;;;;;4140611;28;19951;-40
2023/08/15 05:12:59;;;;;;;;;;;23.50;79.20;;;;;;4163136;28;19932;-40
2023/08/15 05:15:39;;;;;;;;;;;23.50;79.20;;;;;;4127861;28;19940;-40
2023/08/15 05:18:22;;;;;;;;;;;23.50;80.10;;;;;;4149155;28;25364;-40
2023/08/15 05:21:04;;;;;;;;;;;23.40;79.20;;;;;;4140414;28;20400;-40
2023/08/15 05:23:47;;;;;;;;;;;23.50;79.20;;;;;;4121035;28;20003;-40
2023/08/15 05:26:30;;;;;;;;;;;23.40;79.00;;;;;;4149249;28;20284;-40
2023/08/15 05:29:10;;;;;;;;;;;23.40;79.10;;;;;;4144670;28;19996;-40
2023/08/15 05:31:52;;;;;;;;;;;23.40;79.20;;;;;;4151631;28;19955;-40
2023/08/15 05:34:32;;;;;;;;;;;23.40;79.30;;;;;;4140698;28;19936;-40
2023/08/15 05:37:13;;;;;;;;;;;23.40;79.50;;;;;;4129039;28;19932;-40
2023/08/15 05:39:55;;;;;;;;;;;23.40;80.50;;;;;;4154259;28;19931;-40
2023/08/15 05:42:37;;;;;;;;;;;23.30;79.70;;;;;;4143681;28;19947;-40
2023/08/15 05:45:18;;;;;;;;;;;23.30;79.70;;;;;;4155399;28;20331;-39
2023/08/15 05:47:59;;;;;;;;;;;23.30;79.80;;;;;;4173613;28;20071;-40
2023/08/15 05:50:40;;;;;;;;;;;23.40;79.90;;;;;;4173312;28;20311;-40
2023/08/15 05:53:21;;;;;;;;;;;23.30;79.90;;;;;;4173735;28;20276;-40
2023/08/15 05:56:01;;;;;;;;;;;23.30;80.00;;;;;;4174122;28;19935;-40
2023/08/15 05:58:43;;;;;;;;;;;23.30;80.00;;;;;;4174124;28;20738;-40
2023/08/15 06:01:24;;;;;;;;;;;23.30;80.10;;;;;;4163072;28;19986;-40
2023/08/15 06:04:06;;;;;;;;;;;23.30;80.10;;;;;;4172969;28;19992;-39
2023/08/15 06:06:47;;;;;;;;;;;23.30;80.20;;;;;;4173488;28;20406;-40
2023/08/15 06:09:28;;;;;;;;;;;23.30;80.20;;;;;;4173541;28;19935;-40
2023/08/15 06:12:09;;;;;;;;;;;23.30;80.20;;;;;;4168208;28;19990;-40
2023/08/15 06:14:51;;;;;;;;;;;23.30;81.10;;;;;;4154218;28;19932;-41
2023/08/15 06:17:31;;;;;;;;;;;23.30;80.20;;;;;;4154416;28;19951;-40
2023/08/15 06:20:12;;;;;;;;;;;23.30;80.20;;;;;;4143358;28;19940;-40
2023/08/15 06:22:53;;;;;;;;;;;23.30;80.20;;;;;;4156368;28;19937;-40
2023/08/15 06:25:34;;;;;;;;;;;23.30;80.30;;;;;;4152972;28;19939;-40
2023/08/15 06:28:17;;;;;;;;;;;23.30;80.30;;;;;;4172861;28;19951;-40
2023/08/15 06:31:00;;;;;;;;;;;23.30;80.60;;;;;;4173395;28;20022;-41
2023/08/15 06:33:40;;;;;;;;;;;23.30;80.60;;;;;;4165361;28;19984;-40
2023/08/15 06:36:21;;;;;;;;;;;23.30;80.50;;;;;;4155735;28;19948;-41
2023/08/15 06:39:03;;;;;;;;;;;23.40;81.40;;;;;;4140563;28;20705;-40
2023/08/15 06:41:44;;;;;;;;;;;23.40;80.60;;;;;;4156289;28;19932;-39
2023/08/15 06:44:25;;;;;;;;;;;23.40;80.60;;;;;;4143171;28;19932;-40
2023/08/15 06:47:08;;;;;;;;;;;23.40;80.50;;;;;;4156278;28;19932;-40
2023/08/15 06:49:49;;;;;;;;;;;23.40;80.40;;;;;;4139624;28;19960;-40
2023/08/15 06:52:30;;;;;;;;;;;23.40;80.40;;;;;;4140627;28;19932;-40
2023/08/15 06:55:11;;;;;;;;;;;23.40;81.30;;;;;;4139944;28;19936;-40
2023/08/15 06:57:51;;;;;;;;;;;23.40;80.40;;;;;;4148735;28;20052;-40
2023/08/15 07:00:32;;;;;;;;;;;23.50;80.40;;;;;;4153875;28;19990;-40
2023/08/15 07:03:15;;;;;;;;;;;23.50;80.40;;;;;;4142219;28;19994;-40
2023/08/15 07:05:56;;;;;;;;;;;23.50;80.40;;;;;;4155988;28;20613;-40
2023/08/15 07:08:38;;;;;;;;;;;23.50;80.40;;;;;;4154871;28;19967;-40
2023/08/15 07:11:18;;;;;;;;;;;23.40;80.30;;;;;;4154926;28;19936;-40
2023/08/15 07:13:59;;;;;;;;;;;23.40;80.40;;;;;;4152831;28;19936;-40
2023/08/15 07:16:40;;;;;;;;;;;23.50;80.50;;;;;;4149879;28;19932;-40
2023/08/15 07:19:22;;;;;;;;;;;23.50;80.50;;;;;;4155426;28;20285;-40
2023/08/15 07:22:03;;;;;;;;;;;23.40;80.60;;;;;;4155734;28;19932;-40
2023/08/15 07:24:44;;;;;;;;;;;23.50;80.60;;;;;;4154855;28;19979;-40
2023/08/15 07:27:25;;;;;;;;;;;23.50;80.60;;;;;;4155106;28;20030;-40
2023/08/15 07:30:06;;;;;;;;;;;23.50;80.60;;;;;;4155213;28;19936;-40
2023/08/15 07:32:47;;;;;;;;;;;23.50;80.80;;;;;;4149375;28;19940;-40
2023/08/15 07:35:29;;;;;;;;;;;23.60;80.90;;;;;;4136854;28;19932;-40
2023/08/15 07:38:10;;;;;;;;;;;23.60;80.90;;;;;;4141811;28;20078;-40
2023/08/15 07:40:51;;;;;;;;;;;23.60;80.90;;;;;;4127430;28;19932;-39
2023/08/15 07:43:31;;;;;;;;;;;23.70;80.90;;;;;;4139546;28;19937;-40
2023/08/15 07:46:13;;;;;;;;;;;23.70;81.60;;;;;;4155555;28;19932;-40
2023/08/15 07:48:54;;;;;;;;;;;23.80;80.80;;;;;;4141037;28;19940;-40
2023/08/15 07:51:37;;;;;;;;;;;23.80;80.70;;;;;;4155006;28;19936;-40
2023/08/15 07:54:18;;;;;;;;;;;23.90;81.50;;;;;;4141156;28;19993;-40
2023/08/15 07:56:59;;;;;;;;;;;23.90;80.50;;;;;;4131670;28;19987;-40
2023/08/15 07:59:40;;;;;;;;;;;23.90;80.50;;;;;;4171174;28;19932;-41
2023/08/15 08:02:21;;;;;;;;;;;23.90;80.40;;;;;;4159215;28;20268;-40
2023/08/15 08:05:06;;;;;;;;;;;23.90;80.30;;;;;;4152638;28;19936;-43
2023/08/15 08:07:48;;;;;;;;;;;24.00;80.30;;;;;;4137255;28;20376;-43
2023/08/15 08:10:29;;;;;;;;;;;24.00;81.20;;;;;;4140354;28;20408;-44
2023/08/15 08:13:12;;;;;;;;;;;24.00;80.30;;;;;;4154910;28;20320;-46
2023/08/15 08:15:53;;;;;;;;;;;24.00;80.30;;;;;;4145451;28;19933;-48
2023/08/15 08:18:34;;;;;;;;;;;24.00;80.20;;;;;;4128545;28;19948;-44
2023/08/15 08:21:15;;;;;;;;;;;24.00;80.30;;;;;;4122671;28;19936;-45
2023/08/15 08:23:56;;;;;;;;;;;24.00;80.30;;;;;;4147422;28;19932;-45
2023/08/15 08:26:38;;;;;;;;;;;24.00;80.20;;;;;;4152413;28;20490;-44
2023/08/15 08:29:18;;;;;;;;;;;24.00;80.30;;;;;;4154639;28;19936;-50
2023/08/15 08:31:59;;;;;;;;;;;24.00;80.30;;;;;;4170402;28;19986;-44
2023/08/15 08:34:39;;;;;;;;;;;24.00;80.20;;;;;;4170390;28;19931;-44
2023/08/15 08:37:20;;;;;;;;;;;24.00;80.10;;;;;;4171113;28;20059;-46
2023/08/15 08:40:03;;;;;;;;;;;24.10;80.20;;;;;;4168656;28;19932;-43
2023/08/15 08:42:45;;;;;;;;;;;24.10;80.00;;;;;;4146349;28;19936;-45
2023/08/15 08:45:28;;;;;;;;;;;24.10;79.90;;;;;;4154370;28;19932;-43
2023/08/15 08:48:09;;;;;;;;;;;24.10;79.90;;;;;;4154481;28;19938;-45
2023/08/15 08:50:51;;;;;;;;;;;24.10;80.70;;;;;;4154600;28;19936;-43
2023/08/15 08:53:31;;;;;;;;;;;24.20;79.80;;;;;;4152527;28;19932;-51
2023/08/15 08:56:13;;;;;;;;;;;24.20;79.60;;;;;;4137582;28;19941;-46
2023/08/15 08:58:57;;;;;;;;;;;24.20;79.50;;;;;;4134940;28;19932;-54
2023/08/15 09:01:38;;;;;;;;;;;24.30;79.40;;;;;;4153757;28;20487;-49
2023/08/15 09:04:20;;;;;;;;;;;24.30;79.40;;;;;;4170803;28;19931;-47
2023/08/15 09:07:01;;;;;;;;;;;24.30;79.20;;;;;;4170407;28;20272;-46
2023/08/15 09:09:42;;;;;;;;;;;24.30;79.10;;;;;;4156436;28;20335;-46
2023/08/15 09:12:42;;;;;;;;;;;24.30;79.00;;;;;;4154559;28;19936;-48
2023/08/15 09:15:24;;;;;;;;;;;24.30;78.90;;;;;;4153218;28;19999;-46
2023/08/15 09:18:06;;;;;;;;;;;24.40;78.70;;;;;;4157213;28;20063;-45
2023/08/15 09:20:47;;;;;;;;;;;24.40;79.20;;;;;;4152495;28;19932;-46
2023/08/15 09:23:28;;;;;;;;;;;24.50;78.30;;;;;;4154202;28;19955;-45
2023/08/15 09:26:11;;;;;;;;;;;24.50;78.10;;;;;;4142691;28;20002;-44
2023/08/15 09:28:52;;;;;;;;;;;24.50;77.90;;;;;;4150208;28;20403;-43
2023/08/15 09:31:34;;;;;;;;;;;24.60;77.90;;;;;;4154137;28;19936;-45
2023/08/15 09:34:15;;;;;;;;;;;24.60;77.60;;;;;;4152360;28;20414;-44
2023/08/15 09:36:56;;;;;;;;;;;24.60;77.50;;;;;;4137478;28;19937;-44
2023/08/15 09:39:37;;;;;;;;;;;24.60;77.10;;;;;;4150564;28;19936;-43
2023/08/15 09:42:20;;;;;;;;;;;24.60;77.10;;;;;;4125460;28;20063;-44
2023/08/15 09:45:01;;;;;;;;;;;24.60;77.10;;;;;;4137254;28;19932;-48
2023/08/15 09:47:43;;;;;;;;;;;24.60;77.00;;;;;;4154003;28;20090;-45
2023/08/15 09:50:25;;;;;;;;;;;24.60;77.00;;;;;;4153357;28;20328;-46
2023/08/15 09:53:05;;;;;;;;;;;24.60;77.00;;;;;;4147543;28;19932;-45
2023/08/15 09:55:46;;;;;;;;;;;24.60;77.00;;;;;;4154028;28;20030;-46
2023/08/15 09:58:27;;;;;;;;;;;24.50;76.90;;;;;;4153489;28;20093;-45
2023/08/15 10:01:09;;;;;;;;;;;24.60;77.00;;;;;;4153773;28;19979;-45
2023/08/15 10:03:51;;;;;;;;;;;24.50;76.90;;;;;;4146249;28;20425;-46
2023/08/15 10:06:32;;;;;;;;;;;24.50;76.90;;;;;;4156484;28;19936;-45
2023/08/15 10:09:14;;;;;;;;;;;24.50;77.00;;;;;;4156739;28;20310;-45
2023/08/15 10:11:56;;;;;;;;;;;24.50;76.90;;;;;;4156334;28;20429;-46
2023/08/15 10:14:38;;;;;;;;;;;24.50;76.90;;;;;;4133894;28;19978;-46
2023/08/15 10:17:19;;;;;;;;;;;24.50;76.90;;;;;;4156519;28;20075;-43
2023/08/15 10:20:05;;;;;;;;;;;24.50;76.90;;;;;;4156231;28;20092;-46
2023/08/15 10:22:49;;;;;;;;;;;24.50;76.90;;;;;;4144385;28;19931;-43
2023/08/15 10:25:34;;;;;;;;;;;24.50;76.80;;;;;;4156508;28;19982;-43
2023/08/15 10:28:14;;;;;;;;;;;24.50;77.70;;;;;;4156075;28;19931;-44
2023/08/15 10:30:55;;;;;;;;;;;24.50;76.70;;;;;;4142850;28;20495;-44
2023/08/15 10:33:37;;;;;;;;;;;24.50;76.60;;;;;;4156568;28;19948;-47
2023/08/15 10:36:19;;;;;;;;;;;24.50;77.50;;;;;;4156132;28;19936;-44
2023/08/15 10:39:07;;;;;;;;;;;24.50;76.50;;;;;;4166609;28;20012;-44
2023/08/15 10:41:48;;;;;;;;;;;24.60;76.50;;;;;;4135594;28;20472;-46
2023/08/15 10:44:29;;;;;;;;;;;24.50;76.30;;;;;;4153829;28;19951;-46
2023/08/15 10:47:22;;;;;;;;;;;24.60;76.40;;;;;;4156015;28;19932;-48
2023/08/15 10:50:03;;;;;;;;;;;24.60;76.10;;;;;;4139630;28;19936;-45
2023/08/15 10:52:56;;;;;;;;;;;24.60;75.80;;;;;;4149232;28;19936;-43
2023/08/15 10:55:38;;;;;;;;;;;24.70;75.40;;;;;;4138849;28;19963;-45
2023/08/15 10:58:19;;;;;;;;;;;24.70;75.60;;;;;;4145066;28;19932;-47
2023/08/15 11:01:00;;;;;;;;;;;24.80;75.70;;;;;;4138331;28;20007;-44
2023/08/15 11:03:41;;;;;;;;;;;24.80;75.50;;;;;;4125114;28;19937;-44
2023/08/15 11:06:22;;;;;;;;;;;24.80;75.40;;;;;;4139127;28;19932;-42
2023/08/15 11:09:05;;;;;;;;;;;24.80;75.10;;;;;;4139137;28;19979;-42
2023/08/15 11:11:46;;;;;;;;;;;24.80;74.80;;;;;;4137913;28;19936;-42
2023/08/15 11:14:27;;;;;;;;;;;24.90;74.70;;;;;;4130708;28;19932;-44
2023/08/15 11:17:07;;;;;;;;;;;25.00;74.40;;;;;;4139954;28;19953;-44
2023/08/15 11:19:48;;;;;;;;;;;25.00;74.20;;;;;;4139678;28;19948;-44
2023/08/15 11:22:29;;;;;;;;;;;25.00;74.10;;;;;;4138428;28;19933;-46
2023/08/15 11:25:11;;;;;;;;;;;25.10;73.90;;;;;;4154538;28;19932;-43
2023/08/15 11:27:52;;;;;;;;;;;25.10;73.80;;;;;;4155630;28;19936;-40
2023/08/15 11:30:33;;;;;;;;;;;25.10;73.50;;;;;;4155995;28;20014;-39
2023/08/15 11:33:13;;;;;;;;;;;25.20;73.30;;;;;;4155588;28;19936;-39
2023/08/15 11:35:54;;;;;;;;;;;25.20;73.10;;;;;;4154523;28;20292;-39
2023/08/15 11:38:36;;;;;;;;;;;25.20;73.00;;;;;;4154682;28;20391;-39
2023/08/15 11:41:18;;;;;;;;;;;25.20;72.70;;;;;;4143869;28;20289;-39
2023/08/15 11:44:00;;;;;;;;;;;25.30;72.50;;;;;;4171812;28;19932;-39
2023/08/15 11:46:42;;;;;;;;;;;25.30;72.30;;;;;;4171836;28;19931;-39
2023/08/15 11:49:26;;;;;;;;;;;25.30;72.10;;;;;;4172342;28;20296;-40
2023/08/15 11:52:07;;;;;;;;;;;25.30;72.10;;;;;;4171286;28;20383;-39
2023/08/15 11:54:47;;;;;;;;;;;25.40;72.00;;;;;;4171871;28;19931;-39
2023/08/15 11:57:36;;;;;;;;;;;25.40;71.90;;;;;;4161697;28;19935;-39
2023/08/15 12:00:17;;;;;;;;;;;25.40;71.80;;;;;;4143038;28;19932;-39
2023/08/15 12:03:01;;;;;;;;;;;25.40;71.80;;;;;;4153070;28;19991;-39
2023/08/15 12:05:44;;;;;;;;;;;25.40;71.70;;;;;;4154837;28;19982;-38
2023/08/15 12:08:26;;;;;;;;;;;25.40;71.60;;;;;;4143043;28;19936;-39
2023/08/15 12:11:09;;;;;;;;;;;25.50;71.60;;;;;;4155342;28;19935;-39
2023/08/15 12:13:50;;;;;;;;;;;25.50;71.60;;;;;;4154708;28;19971;-38
2023/08/15 12:16:31;;;;;;;;;;;25.50;71.50;;;;;;4157778;28;19975;-39
2023/08/15 12:19:12;;;;;;;;;;;25.50;71.40;;;;;;4159153;28;20545;-39
2023/08/15 12:21:53;;;;;;;;;;;25.50;71.20;;;;;;4144134;28;19932;-37
2023/08/15 12:24:33;;;;;;;;;;;25.50;71.10;;;;;;4153516;28;20460;-37
2023/08/15 12:27:14;;;;;;;;;;;25.50;71.10;;;;;;4153847;28;19936;-38
2023/08/15 12:29:56;;;;;;;;;;;25.50;71.00;;;;;;4139991;28;19948;-38
2023/08/15 12:32:51;;;;;;;;;;;25.60;71.10;;;;;;4169531;28;19932;-38
2023/08/15 12:35:32;;;;;;;;;;;25.60;71.10;;;;;;4171185;28;19935;-38
2023/08/15 12:38:13;;;;;;;;;;;25.60;71.40;;;;;;4158068;28;19936;-38
2023/08/15 12:40:54;;;;;;;;;;;25.60;71.40;;;;;;4159300;28;19932;-38
2023/08/15 12:43:35;;;;;;;;;;;25.60;71.20;;;;;;4171390;28;20469;-37
2023/08/15 12:46:16;;;;;;;;;;;25.60;71.30;;;;;;4159671;28;19932;-38
2023/08/15 12:48:58;;;;;;;;;;;25.60;71.20;;;;;;4146101;28;19932;-37
2023/08/15 12:51:40;;;;;;;;;;;25.60;71.10;;;;;;4120166;28;20285;-38
2023/08/15 12:54:21;;;;;;;;;;;25.60;71.10;;;;;;4128024;28;19976;-38
2023/08/15 12:57:02;;;;;;;;;;;25.60;70.90;;;;;;4153024;28;20382;-38
2023/08/15 12:59:43;;;;;;;;;;;25.60;71.00;;;;;;4152976;28;19978;-38
2023/08/15 13:02:28;;;;;;;;;;;25.60;70.90;;;;;;4152578;28;19936;-38
2023/08/15 13:05:09;;;;;;;;;;;25.60;70.90;;;;;;4153851;28;19983;-38
2023/08/15 13:07:51;;;;;;;;;;;25.50;70.90;;;;;;4151033;28;19936;-38
2023/08/15 13:10:33;;;;;;;;;;;25.60;71.00;;;;;;4133087;28;19944;-40
2023/08/15 13:13:14;;;;;;;;;;;25.50;70.90;;;;;;4163361;28;19971;-40
2023/08/15 13:15:55;;;;;;;;;;;25.50;71.00;;;;;;4151970;28;20400;-39
2023/08/15 13:18:38;;;;;;;;;;;25.50;71.10;;;;;;4126197;28;20070;-38
2023/08/15 13:21:18;;;;;;;;;;;25.50;71.10;;;;;;4154107;28;20354;-38
2023/08/15 13:23:59;;;;;;;;;;;25.50;72.00;;;;;;4148322;28;19978;-39
2023/08/15 13:26:41;;;;;;;;;;;25.50;71.10;;;;;;4129158;28;19933;-38
2023/08/15 13:29:24;;;;;;;;;;;25.50;71.00;;;;;;4105605;28;19938;-38
2023/08/15 13:32:05;;;;;;;;;;;25.50;71.10;;;;;;4119519;28;20077;-42
2023/08/15 13:34:47;;;;;;;;;;;25.40;70.90;;;;;;4138373;28;19936;-42
2023/08/15 13:37:28;;;;;;;;;;;25.50;71.00;;;;;;4138698;28;19936;-43
2023/08/15 13:40:10;;;;;;;;;;;25.50;70.90;;;;;;4142011;28;20399;-41
2023/08/15 13:42:51;;;;;;;;;;;25.50;70.90;;;;;;4157633;28;19936;-41
2023/08/15 13:45:31;;;;;;;;;;;25.60;70.90;;;;;;4141252;28;19933;-42
2023/08/15 13:48:12;;;;;;;;;;;25.50;71.50;;;;;;4139140;28;20060;-42
2023/08/15 13:50:54;;;;;;;;;;;25.50;70.60;;;;;;4140647;28;19932;-41
2023/08/15 13:53:34;;;;;;;;;;;25.60;70.60;;;;;;4152810;28;19936;-41
2023/08/15 13:56:15;;;;;;;;;;;25.60;70.50;;;;;;4143094;28;19932;-41
2023/08/15 13:58:56;;;;;;;;;;;25.60;70.40;;;;;;4154580;28;20299;-42
2023/08/15 14:01:36;;;;;;;;;;;25.60;70.50;;;;;;4156618;28;19932;-43
2023/08/15 14:04:17;;;;;;;;;;;25.60;70.50;;;;;;4136859;28;19975;-42
2023/08/15 14:07:00;;;;;;;;;;;25.60;70.50;;;;;;4111222;28;20307;-41
2023/08/15 14:09:44;;;;;;;;;;;25.60;70.60;;;;;;4137913;28;19936;-42
2023/08/15 14:12:26;;;;;;;;;;;25.60;71.40;;;;;;4168635;28;19932;-42
2023/08/15 14:15:08;;;;;;;;;;;25.60;70.60;;;;;;4153585;28;19932;-40
2023/08/15 14:17:49;;;;;;;;;;;25.60;70.70;;;;;;4125400;28;20285;-42
2023/08/15 14:20:30;;;;;;;;;;;25.60;70.80;;;;;;4132839;28;19933;-42
2023/08/15 14:23:12;;;;;;;;;;;25.60;70.70;;;;;;4140464;28;19941;-42
2023/08/15 14:25:52;;;;;;;;;;;25.60;70.80;;;;;;4145613;28;20391;-40
2023/08/15 14:28:33;;;;;;;;;;;25.70;70.80;;;;;;4173430;28;19931;-42
2023/08/15 14:31:14;;;;;;;;;;;25.70;70.70;;;;;;4172632;28;20070;-40
2023/08/15 14:33:54;;;;;;;;;;;25.70;70.50;;;;;;4146827;28;19944;-41
2023/08/15 14:36:35;;;;;;;;;;;25.70;70.40;;;;;;4156593;28;19936;-41
2023/08/15 14:39:17;;;;;;;;;;;25.70;70.30;;;;;;4149584;28;19933;-41
2023/08/15 14:41:57;;;;;;;;;;;25.70;70.20;;;;;;4154645;28;20284;-40
2023/08/15 14:44:38;;;;;;;;;;;25.70;70.10;;;;;;4173116;28;19935;-41
2023/08/15 14:47:26;;;;;;;;;;;25.70;70.00;;;;;;4172800;28;20487;-42
2023/08/15 14:50:07;;;;;;;;;;;25.70;69.90;;;;;;4155440;28;20018;-41
2023/08/15 14:52:48;;;;;;;;;;;25.70;69.70;;;;;;4171704;28;20338;-43
2023/08/15 14:55:32;;;;;;;;;;;25.70;69.60;;;;;;4131278;28;19936;-38
2023/08/15 14:58:13;;;;;;;;;;;25.70;69.50;;;;;;4155939;28;19986;-38
2023/08/15 15:00:54;;;;;;;;;;;25.70;69.40;;;;;;4143611;28;19935;-42
2023/08/15 15:03:34;;;;;;;;;;;25.70;69.40;;;;;;4154905;28;20007;-42
2023/08/15 15:06:17;;;;;;;;;;;25.70;69.40;;;;;;4137241;28;20056;-43
2023/08/15 15:08:58;;;;;;;;;;;25.70;69.40;;;;;;4130148;28;19968;-42
2023/08/15 15:11:40;;;;;;;;;;;25.70;69.40;;;;;;4150272;28;20419;-42
2023/08/15 15:14:21;;;;;;;;;;;25.70;69.40;;;;;;4152160;28;19932;-42
2023/08/15 15:17:02;;;;;;;;;;;25.70;69.30;;;;;;4152819;28;19931;-43
2023/08/15 15:19:43;;;;;;;;;;;25.70;69.30;;;;;;4144814;28;19936;-44
2023/08/15 15:22:24;;;;;;;;;;;25.70;69.30;;;;;;4156616;28;20071;-43
2023/08/15 15:25:06;;;;;;;;;;;25.70;69.20;;;;;;4139552;28;19936;-42
2023/08/15 15:27:48;;;;;;;;;;;25.70;69.20;;;;;;4139857;28;20380;-42
2023/08/15 15:30:29;;;;;;;;;;;25.70;69.30;;;;;;4137473;28;19932;-41
2023/08/15 15:33:09;;;;;;;;;;;25.60;70.20;;;;;;4139797;28;19936;-42
2023/08/15 15:35:50;;;;;;;;;;;25.60;69.40;;;;;;4124039;28;19933;-43
2023/08/15 15:38:30;;;;;;;;;;;25.60;69.50;;;;;;4146442;28;19951;-42